Terminal Aerodrome Forecast
Issued by NWS

Home | Current Version | Previous Version | Text Only | Print | Product List | Glossary Off
Versions: 1 2 3 4 5 6 7 8 9 10 11 12 13 14 15 16 17 18 19 20 21 22 23 24 25 26 27 28 29 30 31 32 33 34 35 36

000
FTUS43 KLOT 250538
TAFMDW
TAF
KMDW 250538Z 2506/2606 16006KT P6SM FEW060 BKN080
     FM250700 19013G20KT P6SM SHRA VCTS BKN040CB OVC080
      TEMPO 2507/2510 TSRA SCT020 OVC040CB
     FM251000 19020G30KT P6SM VCSH SCT020 OVC035
     FM251400 23023G34KT P6SM SCT035
     FM252000 23018G28KT P6SM SCT040=

USA.gov is the U.S. government's official web portal to all federal, state and local government web resources and services.